createdAt,value
2023-03-24T00:02:29.068Z,100033.50
2023-03-24T00:05:18.963Z,100034.78
2023-03-24T00:08:06.573Z,100033.75
2023-03-24T00:10:53.337Z,100030.06
2023-03-24T00:13:40.950Z,100013.66
2023-03-24T00:16:27.885Z,100016.44
2023-03-24T00:19:16.327Z,100013.69
2023-03-24T00:22:02.819Z,100023.66
2023-03-24T00:24:49.731Z,100005.44
2023-03-24T00:27:37.298Z,100008.63
2023-03-24T00:30:25.425Z,100004.00
2023-03-24T00:33:13.531Z,99996.69
2023-03-24T00:36:02.787Z,99952.75
2023-03-24T00:38:52.432Z,99989.66
2023-03-24T00:41:48.344Z,99982.00
2023-03-24T00:44:58.123Z,99970.84
2023-03-24T00:47:46.477Z,99970.56
2023-03-24T00:50:35.409Z,99964.53
2023-03-24T00:53:26.326Z,99965.63
2023-03-24T00:56:17.758Z,99973.16
2023-03-24T00:59:06.885Z,99974.94
2023-03-24T01:01:53.412Z,99975.81
2023-03-24T01:04:42.341Z,99939.09
2023-03-24T01:07:31.239Z,99969.00
2023-03-24T01:10:21.712Z,99962.59
2023-03-24T01:13:08.367Z,99969.53
2023-03-24T01:15:57.499Z,99966.69
2023-03-24T01:18:44.522Z,99958.56
2023-03-24T01:21:31.973Z,99950.25
2023-03-24T01:24:20.253Z,99945.34
2023-03-24T01:27:15.047Z,99940.47
2023-03-24T01:30:04.873Z,99934.69
2023-03-24T01:32:53.850Z,99913.41
2023-03-24T01:35:42.555Z,99926.63
2023-03-24T01:38:31.014Z,99923.00
2023-03-24T01:41:21.258Z,99922.84
2023-03-24T01:44:35.168Z,99912.53
2023-03-24T01:47:23.414Z,99909.63
2023-03-24T01:50:10.780Z,99906.19
2023-03-24T01:52:57.614Z,99892.63
2023-03-24T01:55:46.638Z,99883.38
2023-03-24T01:58:37.833Z,99880.53
2023-03-24T02:01:37.115Z,99864.84
2023-03-24T02:04:39.826Z,99859.03
2023-03-24T02:07:34.580Z,99847.38
2023-03-24T02:10:23.141Z,99844.94
2023-03-24T02:13:10.411Z,99841.28
2023-03-24T02:16:12.700Z,99838.78
2023-03-24T02:19:25.136Z,99831.59
2023-03-24T02:22:44.341Z,99831.06
2023-03-24T02:25:51.770Z,99831.22
2023-03-24T02:28:48.588Z,99833.13
2023-03-24T02:31:59.045Z,99815.47
2023-03-24T02:35:23.343Z,99809.56
2023-03-24T02:38:39.276Z,99811.28
2023-03-24T02:41:34.618Z,99810.06
2023-03-24T02:44:27.041Z,99799.84
2023-03-24T02:47:21.417Z,99791.28
2023-03-24T02:50:14.842Z,99792.34
2023-03-24T02:53:10.275Z,99782.00
2023-03-24T02:56:13.942Z,99772.13
2023-03-24T02:59:05.922Z,99763.06
2023-03-24T03:02:00.853Z,99760.22
2023-03-24T03:05:06.160Z,99756.41
2023-03-24T03:07:56.940Z,99761.66
2023-03-24T03:10:47.695Z,99749.69
2023-03-24T03:13:38.163Z,99751.00
2023-03-24T03:16:38.362Z,99759.28
2023-03-24T03:19:31.754Z,99766.69
2023-03-24T03:22:22.131Z,99757.09
2023-03-24T03:25:10.883Z,99755.94
2023-03-24T03:28:01.175Z,99742.84
2023-03-24T03:30:52.523Z,99752.13
2023-03-24T03:33:49.292Z,99750.44
2023-03-24T03:36:42.163Z,99736.75
2023-03-24T03:39:32.156Z,99734.28
2023-03-24T03:42:22.118Z,99733.13
2023-03-24T03:45:11.148Z,99729.91
2023-03-24T03:47:58.157Z,99724.38
2023-03-24T03:50:47.151Z,99720.97
2023-03-24T03:53:40.492Z,99729.91
2023-03-24T03:56:29.752Z,99718.97
2023-03-24T03:59:45.806Z,99725.16
2023-03-24T04:02:53.564Z,99726.47
2023-03-24T04:05:46.378Z,99709.28
2023-03-24T04:08:49.069Z,99706.13
2023-03-24T04:12:02.119Z,99709.75
2023-03-24T04:15:12.585Z,99689.97
2023-03-24T04:18:31.729Z,99695.41
2023-03-24T04:21:38.562Z,99686.28
2023-03-24T04:24:40.285Z,99685.91
2023-03-24T04:27:40.124Z,99681.75
2023-03-24T04:30:34.260Z,99666.44
2023-03-24T04:33:30.392Z,99660.44
2023-03-24T04:36:23.576Z,99658.84
2023-03-24T04:39:39.187Z,99656.94
2023-03-24T04:42:37.090Z,99645.16
2023-03-24T04:45:25.857Z,99646.38
2023-03-24T04:48:26.563Z,99639.06
2023-03-24T04:51:34.218Z,99633.38
2023-03-24T04:54:25.836Z,99635.16
2023-03-24T04:57:20.016Z,99634.50
2023-03-24T05:00:12.848Z,99630.69
2023-03-24T05:03:00.707Z,99629.09
2023-03-24T05:05:49.737Z,99623.66
2023-03-24T05:08:36.259Z,99608.94
2023-03-24T05:11:23.071Z,99612.75
2023-03-24T05:14:21.392Z,99622.16
2023-03-24T05:17:08.890Z,99616.56
2023-03-24T05:19:55.528Z,99595.22
2023-03-24T05:22:42.544Z,99606.88
2023-03-24T05:25:29.837Z,99602.34
2023-03-24T05:28:16.841Z,99604.78
2023-03-24T05:31:05.612Z,99608.28
2023-03-24T05:34:05.308Z,99604.19
2023-03-24T05:36:58.220Z,99597.41
2023-03-24T05:39:45.382Z,99599.63
2023-03-24T05:42:49.885Z,99593.41
2023-03-24T05:45:36.982Z,99594.84
2023-03-24T05:48:26.018Z,99583.81
2023-03-24T05:51:27.481Z,99596.63
2023-03-24T05:54:22.397Z,99590.97
2023-03-24T05:57:14.302Z,99585.00
2023-03-24T06:00:18.564Z,99586.94
2023-03-24T06:03:14.160Z,99586.03
2023-03-24T06:06:08.152Z,99578.94
2023-03-24T06:08:55.465Z,99578.84
2023-03-24T06:11:44.730Z,99565.59
2023-03-24T06:14:31.704Z,99574.25
2023-03-24T06:17:28.745Z,99571.78
2023-03-24T06:20:18.530Z,99575.22
2023-03-24T06:23:17.564Z,99563.09
2023-03-24T06:26:23.022Z,99556.16
2023-03-24T06:29:18.018Z,99574.19
2023-03-24T06:32:06.750Z,99562.69
2023-03-24T06:35:00.175Z,99569.47
2023-03-24T06:38:07.563Z,99553.50
2023-03-24T06:41:01.311Z,99553.09
2023-03-24T06:43:48.371Z,99544.75
2023-03-24T06:46:35.279Z,99543.03
2023-03-24T06:49:22.157Z,99540.03
2023-03-24T06:52:09.156Z,99549.63
2023-03-24T06:54:59.513Z,99545.59
2023-03-24T06:57:49.105Z,99553.03
2023-03-24T07:00:56.033Z,99549.47
2023-03-24T07:03:46.279Z,99544.66
2023-03-24T07:06:43.147Z,99536.63
2023-03-24T07:09:38.975Z,99536.84
2023-03-24T07:12:25.839Z,99531.06
2023-03-24T07:15:14.240Z,99521.69
2023-03-24T07:18:02.159Z,99524.50
2023-03-24T07:20:55.509Z,99514.13
2023-03-24T07:23:42.939Z,99508.63
2023-03-24T07:26:32.873Z,99507.25
2023-03-24T07:29:32.157Z,99498.63
2023-03-24T07:32:39.707Z,99499.88
2023-03-24T07:35:27.202Z,99493.13
2023-03-24T07:38:14.188Z,99492.06
2023-03-24T07:41:01.122Z,99490.81
2023-03-24T07:43:51.743Z,99479.19
2023-03-24T07:46:44.608Z,99485.66
2023-03-24T07:49:32.885Z,99479.91
2023-03-24T07:52:26.317Z,99481.50
2023-03-24T07:55:15.846Z,99474.44
2023-03-24T07:58:25.632Z,99476.22
2023-03-24T08:01:32.938Z,99472.38
2023-03-24T08:04:22.798Z,99482.88
2023-03-24T08:07:20.161Z,99499.28
2023-03-24T08:10:08.044Z,99485.44
2023-03-24T08:12:55.082Z,99483.41
2023-03-24T08:15:41.525Z,99482.72
2023-03-24T08:18:28.429Z,99471.31
2023-03-24T08:21:15.686Z,99474.94
2023-03-24T08:24:03.865Z,99482.94
2023-03-24T08:26:53.036Z,99477.25
2023-03-24T08:29:40.415Z,99468.13
2023-03-24T08:32:33.180Z,99469.88
2023-03-24T08:35:22.600Z,99472.03
2023-03-24T08:38:11.751Z,99475.59
2023-03-24T08:41:02.804Z,99485.63
2023-03-24T08:43:49.788Z,99455.75
2023-03-24T08:46:36.368Z,99475.84
2023-03-24T08:49:23.188Z,99463.44
2023-03-24T08:52:10.034Z,99436.94
2023-03-24T08:54:56.900Z,99456.47
2023-03-24T08:57:45.851Z,99447.78
2023-03-24T09:00:33.509Z,99459.66
2023-03-24T09:03:24.138Z,99465.50
2023-03-24T09:06:10.881Z,99466.56
2023-03-24T09:08:57.878Z,99470.03
2023-03-24T09:11:44.733Z,99462.69
2023-03-24T09:14:32.935Z,99462.28
2023-03-24T09:17:20.039Z,99466.66
2023-03-24T09:20:08.551Z,99463.66
2023-03-24T09:22:55.965Z,99476.31
2023-03-24T09:25:42.882Z,99468.47
2023-03-24T09:28:29.846Z,99480.03
2023-03-24T09:31:18.070Z,99491.97
2023-03-24T09:34:05.090Z,99497.72
2023-03-24T09:36:51.618Z,99489.56
2023-03-24T09:39:38.463Z,99496.44
2023-03-24T09:42:27.878Z,99502.94
2023-03-24T09:45:19.441Z,99511.69
2023-03-24T09:48:13.841Z,99499.97
2023-03-24T09:51:06.006Z,99511.19
2023-03-24T09:54:02.125Z,99502.78
2023-03-24T09:56:51.740Z,99513.25
2023-03-24T09:59:41.088Z,99494.16
2023-03-24T10:02:30.447Z,99489.63
2023-03-24T10:05:22.091Z,99504.53
2023-03-24T10:08:16.949Z,99498.53
2023-03-24T10:11:06.012Z,99496.13
2023-03-24T10:14:05.895Z,99493.00
2023-03-24T10:17:00.475Z,99494.94
2023-03-24T10:19:59.316Z,99516.94
2023-03-24T10:22:56.229Z,99507.56
2023-03-24T10:25:51.280Z,99505.41
2023-03-24T10:28:45.627Z,99493.38
2023-03-24T10:31:34.583Z,99475.34
2023-03-24T10:34:33.012Z,99502.38
2023-03-24T10:37:20.757Z,99489.16
2023-03-24T10:40:18.111Z,99497.38
2023-03-24T10:43:09.747Z,99498.88
2023-03-24T10:45:59.294Z,99500.66
2023-03-24T10:48:47.750Z,99499.69
2023-03-24T10:51:35.595Z,99502.34
2023-03-24T10:54:23.932Z,99491.16
2023-03-24T10:57:19.292Z,99510.97
2023-03-24T11:00:13.272Z,99510.72
2023-03-24T11:03:02.670Z,99512.41
2023-03-24T11:05:49.801Z,99512.13
2023-03-24T11:08:38.581Z,99520.97
2023-03-24T11:11:32.134Z,99522.91
2023-03-24T11:14:25.649Z,99521.13
2023-03-24T11:17:15.367Z,99524.78
2023-03-24T11:20:02.073Z,99519.88
2023-03-24T11:23:04.954Z,99520.19
2023-03-24T11:26:03.239Z,99537.47
2023-03-24T11:28:53.917Z,99540.25
2023-03-24T11:31:42.652Z,99536.28
2023-03-24T11:34:34.232Z,99541.84
2023-03-24T11:37:23.855Z,99538.78
2023-03-24T11:40:24.580Z,99524.44
2023-03-24T11:43:21.937Z,99535.91
2023-03-24T11:46:14.187Z,99527.63
2023-03-24T11:49:02.509Z,99524.94
2023-03-24T11:51:53.070Z,99523.97
2023-03-24T11:54:40.183Z,99527.25
2023-03-24T11:57:47.697Z,99519.03
2023-03-24T12:00:39.397Z,99523.91
2023-03-24T12:04:00.097Z,99531.38
2023-03-24T12:07:01.424Z,99544.69
2023-03-24T12:09:57.529Z,99547.47
2023-03-24T12:12:52.930Z,99552.06
2023-03-24T12:15:54.695Z,99543.00
2023-03-24T12:19:06.835Z,99539.13
2023-03-24T12:22:07.726Z,99525.13
2023-03-24T12:25:09.963Z,99525.25
2023-03-24T12:28:08.411Z,99532.50
2023-03-24T12:31:06.295Z,99537.63
2023-03-24T12:34:04.427Z,99550.84
2023-03-24T12:37:01.865Z,99546.91
2023-03-24T12:39:58.500Z,99564.19
2023-03-24T12:42:46.569Z,99569.81
2023-03-24T12:45:42.881Z,99566.94
2023-03-24T12:49:00.025Z,99568.00
2023-03-24T12:51:55.163Z,99575.75
2023-03-24T12:54:53.259Z,99562.47
2023-03-24T12:57:47.189Z,99553.56
2023-03-24T13:00:37.786Z,99559.84
2023-03-24T13:03:31.312Z,99558.19
2023-03-24T13:06:24.674Z,99551.06
2023-03-24T13:09:20.293Z,99518.28
2023-03-24T13:12:14.569Z,99568.91
2023-03-24T13:15:08.330Z,99568.91
2023-03-24T13:18:06.319Z,99562.06
2023-03-24T13:20:57.417Z,99558.41
2023-03-24T13:23:51.778Z,99570.16
2023-03-24T13:26:40.490Z,99574.19
2023-03-24T13:29:49.863Z,99584.94
2023-03-24T13:32:42.782Z,99609.41
2023-03-24T13:35:42.325Z,99599.41
2023-03-24T13:38:36.945Z,99594.81
2023-03-24T13:41:27.225Z,99579.06
2023-03-24T13:44:20.447Z,99603.28
2023-03-24T13:47:13.205Z,99607.94
2023-03-24T13:50:02.575Z,99602.59
2023-03-24T13:52:51.194Z,99611.22
2023-03-24T13:55:41.012Z,99617.06
2023-03-24T13:58:45.166Z,99624.88
2023-03-24T14:01:34.977Z,99643.38
2023-03-24T14:04:29.815Z,99646.28
2023-03-24T14:07:33.229Z,99636.31
2023-03-24T14:10:41.670Z,99651.16
2023-03-24T14:13:48.808Z,99658.88
2023-03-24T14:16:44.087Z,99635.50
2023-03-24T14:19:39.080Z,99615.53
2023-03-24T14:22:30.963Z,99604.50
2023-03-24T14:25:25.941Z,99654.31
2023-03-24T14:28:22.559Z,99645.44
2023-03-24T14:31:18.601Z,99631.34
2023-03-24T14:34:10.963Z,99636.44
2023-03-24T14:37:03.788Z,99647.50
2023-03-24T14:39:52.211Z,99598.97
2023-03-24T14:43:03.239Z,99584.16
2023-03-24T14:45:58.466Z,99573.94
2023-03-24T14:48:56.771Z,99556.81
2023-03-24T14:51:48.142Z,99511.28
2023-03-24T14:54:42.158Z,99560.84
2023-03-24T14:57:30.778Z,99568.13
2023-03-24T15:00:22.265Z,99583.81
2023-03-24T15:03:20.021Z,99588.59
2023-03-24T15:06:14.877Z,99593.66
2023-03-24T15:09:06.724Z,99578.50
2023-03-24T15:11:54.911Z,99591.22
2023-03-24T15:14:41.333Z,99600.03
2023-03-24T15:17:28.306Z,99607.34
2023-03-24T15:20:27.624Z,99604.59
2023-03-24T15:23:19.236Z,99615.94
2023-03-24T15:26:13.598Z,99620.84
2023-03-24T15:29:04.034Z,99619.25
2023-03-24T15:31:51.387Z,99622.91
2023-03-24T15:34:42.055Z,99626.94
2023-03-24T15:37:35.613Z,99624.25
2023-03-24T15:40:36.478Z,99621.22
2023-03-24T15:43:23.351Z,99628.22
2023-03-24T15:46:24.738Z,99629.63
2023-03-24T15:49:22.632Z,99627.06
2023-03-24T15:52:25.542Z,99638.88
2023-03-24T15:55:25.130Z,99641.41
2023-03-24T15:58:24.356Z,99630.94
2023-03-24T16:01:14.253Z,99637.59
2023-03-24T16:04:03.511Z,99638.69
2023-03-24T16:06:53.841Z,99648.88
2023-03-24T16:09:41.151Z,99644.25
2023-03-24T16:12:27.559Z,99646.91
2023-03-24T16:15:14.596Z,99655.28
2023-03-24T16:18:01.302Z,99662.00
2023-03-24T16:20:51.862Z,99662.75
2023-03-24T16:23:38.440Z,99650.41
2023-03-24T16:26:27.090Z,99646.28
2023-03-24T16:29:17.310Z,99652.47
2023-03-24T16:32:04.197Z,99660.56
2023-03-24T16:34:51.082Z,99661.59
2023-03-24T16:37:39.293Z,99661.28
2023-03-24T16:40:32.220Z,99662.47
2023-03-24T16:43:19.787Z,99670.78
2023-03-24T16:46:07.232Z,99673.22
2023-03-24T16:48:54.665Z,99679.44
2023-03-24T16:51:41.776Z,99670.28
2023-03-24T16:54:30.102Z,99665.91
2023-03-24T16:57:16.883Z,99674.88
2023-03-24T17:00:11.039Z,99673.19
2023-03-24T17:02:59.786Z,99673.63
2023-03-24T17:05:48.623Z,99672.59
2023-03-24T17:08:35.515Z,99684.78
2023-03-24T17:11:28.322Z,99696.19
2023-03-24T17:14:15.556Z,99701.22
2023-03-24T17:17:04.475Z,99701.53
2023-03-24T17:19:51.849Z,99709.31
2023-03-24T17:22:38.714Z,99706.63
2023-03-24T17:25:29.295Z,99705.50
2023-03-24T17:28:17.928Z,99706.81
2023-03-24T17:31:04.915Z,99712.09
2023-03-24T17:33:51.552Z,99716.03
2023-03-24T17:36:38.277Z,99721.00
2023-03-24T17:39:25.269Z,99681.47
2023-03-24T17:42:12.044Z,99724.75
2023-03-24T17:45:00.160Z,99730.53
2023-03-24T17:47:47.558Z,99725.91
2023-03-24T17:50:34.578Z,99712.78
2023-03-24T17:53:25.708Z,99736.28
2023-03-24T17:56:12.712Z,99735.97
2023-03-24T17:58:59.794Z,99739.03
2023-03-24T18:01:48.101Z,99752.63
2023-03-24T18:04:35.389Z,99742.06
2023-03-24T18:07:23.150Z,99740.16
2023-03-24T18:10:10.898Z,99748.44
2023-03-24T18:12:57.705Z,99749.13
2023-03-24T18:15:44.691Z,99755.56
2023-03-24T18:18:32.843Z,99751.47
2023-03-24T18:21:21.180Z,99742.47
2023-03-24T18:24:08.919Z,99751.47
2023-03-24T18:26:55.757Z,99746.66
2023-03-24T18:29:42.462Z,99746.34
2023-03-24T18:32:29.334Z,99750.06
2023-03-24T18:35:17.565Z,99750.72
2023-03-24T18:38:04.341Z,99747.22
2023-03-24T18:40:58.823Z,99753.69
2023-03-24T18:43:47.880Z,99745.69
2023-03-24T18:46:35.536Z,99757.66
2023-03-24T18:49:22.056Z,99756.78
2023-03-24T18:52:10.307Z,99753.06
2023-03-24T18:54:57.183Z,99760.06
2023-03-24T18:57:44.134Z,99766.13
2023-03-24T19:00:31.052Z,99756.78
2023-03-24T19:03:18.638Z,99757.88
2023-03-24T19:06:07.417Z,99760.13
2023-03-24T19:08:55.321Z,99765.13
2023-03-24T19:11:43.531Z,99756.69
2023-03-24T19:14:30.163Z,99761.78
2023-03-24T19:17:16.944Z,99775.44
2023-03-24T19:20:07.639Z,99783.91
2023-03-24T19:23:01.208Z,99795.41
2023-03-24T19:25:50.253Z,99795.13
2023-03-24T19:28:37.696Z,99793.06
2023-03-24T19:31:24.263Z,99787.78
2023-03-24T19:34:11.054Z,99790.41
2023-03-24T19:36:58.376Z,99797.75
2023-03-24T19:39:46.269Z,99799.88
2023-03-24T19:42:34.219Z,99789.59
2023-03-24T19:45:21.751Z,99782.38
2023-03-24T19:48:08.475Z,99783.72
2023-03-24T19:50:56.353Z,99776.19
2023-03-24T19:53:42.868Z,99776.31
2023-03-24T19:56:29.611Z,99768.69
2023-03-24T19:59:17.638Z,99767.75
2023-03-24T20:02:04.275Z,99778.97
2023-03-24T20:04:52.068Z,99782.69
2023-03-24T20:07:38.617Z,99786.13
2023-03-24T20:10:26.227Z,99796.72
2023-03-24T20:13:12.857Z,99790.50
2023-03-24T20:16:01.902Z,99785.84
2023-03-24T20:18:48.643Z,99789.72
2023-03-24T20:21:35.417Z,99784.56
2023-03-24T20:24:22.445Z,99779.13
2023-03-24T20:27:09.417Z,99785.81
2023-03-24T20:29:56.030Z,99793.09
2023-03-24T20:32:44.433Z,99788.06
2023-03-24T20:35:48.068Z,99787.53
2023-03-24T20:38:35.096Z,99782.56
2023-03-24T20:41:22.079Z,99783.84
2023-03-24T20:44:09.567Z,99789.69
2023-03-24T20:46:57.265Z,99788.22
2023-03-24T20:49:45.564Z,99792.34
2023-03-24T20:52:32.796Z,99789.84
2023-03-24T20:55:19.491Z,99788.91
2023-03-24T20:58:08.315Z,99776.91
2023-03-24T21:00:55.439Z,99750.50
2023-03-24T21:03:42.094Z,99798.31
2023-03-24T21:06:33.814Z,99791.66
2023-03-24T21:09:23.053Z,99799.38
2023-03-24T21:12:13.010Z,99802.78
2023-03-24T21:15:05.748Z,99808.78
2023-03-24T21:17:53.438Z,99799.69
2023-03-24T21:20:42.432Z,99798.25
2023-03-24T21:23:34.376Z,99795.91
2023-03-24T21:26:21.326Z,99793.50
2023-03-24T21:29:08.182Z,99803.72
2023-03-24T21:31:55.135Z,99806.63
2023-03-24T21:34:42.871Z,99802.25
2023-03-24T21:37:30.234Z,99805.16
2023-03-24T21:40:20.284Z,99801.72
2023-03-24T21:43:06.795Z,99795.66
2023-03-24T21:45:54.905Z,99806.66
2023-03-24T21:48:51.472Z,99764.31
2023-03-24T21:51:38.331Z,99803.72
2023-03-24T21:54:26.886Z,99800.66
2023-03-24T21:57:15.157Z,99798.50
2023-03-24T22:00:09.840Z,99793.28
2023-03-24T22:03:02.376Z,99794.13
2023-03-24T22:05:49.814Z,99793.97
2023-03-24T22:08:36.607Z,99792.19
2023-03-24T22:11:24.994Z,99794.66
2023-03-24T22:14:13.157Z,99792.09
2023-03-24T22:17:01.781Z,99802.88
2023-03-24T22:19:48.344Z,99799.97
2023-03-24T22:22:42.867Z,99802.88
2023-03-24T22:25:30.788Z,99810.44
2023-03-24T22:28:19.039Z,99809.50
2023-03-24T22:31:09.030Z,99813.16
2023-03-24T22:33:56.385Z,99812.47
2023-03-24T22:36:43.394Z,99818.72
2023-03-24T22:39:30.398Z,99818.47
2023-03-24T22:42:17.366Z,99812.09
2023-03-24T22:45:04.221Z,99811.31
2023-03-24T22:47:56.469Z,99803.66
2023-03-24T22:50:43.139Z,99802.88
2023-03-24T22:53:29.801Z,99784.84
2023-03-24T22:56:17.013Z,99791.72
2023-03-24T22:59:04.169Z,99790.84
2023-03-24T23:02:02.430Z,99787.09
2023-03-24T23:04:56.619Z,99780.47
2023-03-24T23:07:44.189Z,99790.00
2023-03-24T23:10:30.803Z,99784.13
2023-03-24T23:13:17.907Z,99771.75
2023-03-24T23:16:04.655Z,99775.56
2023-03-24T23:18:51.752Z,99773.84
2023-03-24T23:21:39.792Z,99780.72
2023-03-24T23:24:26.736Z,99769.19
2023-03-24T23:27:13.196Z,99776.66
2023-03-24T23:29:59.908Z,99713.78
2023-03-24T23:32:47.336Z,99783.03
2023-03-24T23:35:34.283Z,99785.13
2023-03-24T23:38:22.469Z,99771.44
2023-03-24T23:41:09.846Z,99771.72
2023-03-24T23:43:56.510Z,99779.81
2023-03-24T23:46:43.342Z,99782.88
2023-03-24T23:49:30.023Z,99788.03
2023-03-24T23:52:17.098Z,99783.03
2023-03-24T23:55:05.804Z,99776.47
2023-03-24T23:57:52.595Z,99784.81
